GAP2778 RPSP-RPLL
Flight info
| Callsign | GAP2778 |
|---|---|
| Flight time | 1h 3m |
| Altitude | 34000 |
| Route | LAMOK2P LAMOK B473 LAIYA LAIYA3R |
| Aircraft | A320/M-SDE3FGHIRWY/LB1 |
Departure
| Time | 2026-04-22 11:34 |
|---|---|
| Airport | Bohol-Panglao International Airport (RPSP) |
Arrival
| Time | 2026-04-22 12:38 |
|---|---|
| Airport | Ninoy Aquino International Airport (RPLL) |
| Time | Latitude | Longitude | Altitude | Speed | Heading |
|---|---|---|---|---|---|
| 2026-04-22 11:22 | 9.56916 | 123.77174 | 50 ft | 0 kts | 121° |
| 2026-04-22 11:22 | 9.56920 | 123.77168 | 50 ft | 2 kts | 121° |
| 2026-04-22 11:23 | 9.56928 | 123.77155 | 50 ft | 2 kts | 121° |
| 2026-04-22 11:23 | 9.56935 | 123.77142 | 50 ft | 2 kts | 121° |
| 2026-04-22 11:23 | 9.56943 | 123.77129 | 50 ft | 2 kts | 125° |
| 2026-04-22 11:23 | 9.56953 | 123.77119 | 50 ft | 2 kts | 144° |
| 2026-04-22 11:24 | 9.56966 | 123.77111 | 50 ft | 2 kts | 160° |
| 2026-04-22 11:24 | 9.56981 | 123.77108 | 50 ft | 2 kts | 176° |
| 2026-04-22 11:24 | 9.56996 | 123.77109 | 50 ft | 2 kts | 192° |
| 2026-04-22 11:24 | 9.57009 | 123.77113 | 50 ft | 1 kts | 207° |
| 2026-04-22 11:25 | 9.57015 | 123.77116 | 50 ft | 1 kts | 211° |
| 2026-04-22 11:25 | 9.57016 | 123.77117 | 50 ft | 0 kts | 211° |
| 2026-04-22 11:28 | 9.57014 | 123.77116 | 50 ft | 0 kts | 211° |
| 2026-04-22 11:28 | 9.57005 | 123.77110 | 50 ft | 2 kts | 211° |
| 2026-04-22 11:28 | 9.56985 | 123.77098 | 50 ft | 4 kts | 210° |
| 2026-04-22 11:29 | 9.56959 | 123.77084 | 50 ft | 4 kts | 210° |
| 2026-04-22 11:29 | 9.56927 | 123.77065 | 50 ft | 6 kts | 210° |
| 2026-04-22 11:29 | 9.56883 | 123.77039 | 50 ft | 8 kts | 210° |
| 2026-04-22 11:29 | 9.56836 | 123.77002 | 50 ft | 9 kts | 246° |
| 2026-04-22 11:30 | 9.56858 | 123.76939 | 50 ft | 10 kts | 303° |
| 2026-04-22 11:30 | 9.56895 | 123.76876 | 50 ft | 10 kts | 301° |
| 2026-04-22 11:30 | 9.56930 | 123.76810 | 50 ft | 11 kts | 278° |
| 2026-04-22 11:30 | 9.56883 | 123.76762 | 50 ft | 10 kts | 210° |
| 2026-04-22 11:31 | 9.56821 | 123.76725 | 50 ft | 10 kts | 210° |
| 2026-04-22 11:31 | 9.56778 | 123.76700 | 50 ft | 10 kts | 212° |
| 2026-04-22 11:31 | 9.56692 | 123.76646 | 50 ft | 11 kts | 211° |
| 2026-04-22 11:31 | 9.56621 | 123.76604 | 50 ft | 12 kts | 211° |
| 2026-04-22 11:32 | 9.56546 | 123.76559 | 50 ft | 11 kts | 211° |
| 2026-04-22 11:32 | 9.56476 | 123.76544 | 50 ft | 10 kts | 179° |
| 2026-04-22 11:32 | 9.56423 | 123.76527 | 50 ft | 7 kts | 249° |
| 2026-04-22 11:32 | 9.56460 | 123.76509 | 50 ft | 6 kts | 25° |
| 2026-04-22 11:33 | 9.56479 | 123.76521 | 50 ft | 0 kts | 31° |
| 2026-04-22 11:34 | 9.56489 | 123.76527 | 50 ft | 8 kts | 31° |
| 2026-04-22 11:34 | 9.56623 | 123.76608 | 50 ft | 61 kts | 30° |
| 2026-04-22 11:34 | 9.57501 | 123.77131 | 54 ft | 152 kts | 31° |
| 2026-04-22 11:34 | 9.58410 | 123.77678 | 707 ft | 152 kts | 31° |
| 2026-04-22 11:35 | 9.59316 | 123.78197 | 1402 ft | 154 kts | 18° |
| 2026-04-22 11:35 | 9.60363 | 123.78217 | 2073 ft | 153 kts | 352° |
| 2026-04-22 11:35 | 9.61400 | 123.78019 | 2626 ft | 154 kts | 349° |
| 2026-04-22 11:35 | 9.62451 | 123.77802 | 3176 ft | 156 kts | 349° |
| 2026-04-22 11:36 | 9.63514 | 123.77595 | 3682 ft | 161 kts | 349° |
| 2026-04-22 11:36 | 9.64667 | 123.77384 | 4076 ft | 176 kts | 350° |
| 2026-04-22 11:36 | 9.65913 | 123.77165 | 4501 ft | 192 kts | 350° |
| 2026-04-22 11:36 | 9.67308 | 123.76926 | 4859 ft | 214 kts | 350° |
| 2026-04-22 11:37 | 9.68830 | 123.76668 | 5447 ft | 227 kts | 350° |
| 2026-04-22 11:37 | 9.70373 | 123.76409 | 6241 ft | 231 kts | 350° |
| 2026-04-22 11:37 | 9.71961 | 123.76144 | 7070 ft | 233 kts | 349° |
| 2026-04-22 11:37 | 9.73533 | 123.75883 | 7868 ft | 236 kts | 349° |
| 2026-04-22 11:38 | 9.75158 | 123.75658 | 8666 ft | 239 kts | 354° |
| 2026-04-22 11:38 | 9.76263 | 123.75592 | 9194 ft | 242 kts | 355° |
| 2026-04-22 11:38 | 9.80212 | 123.75442 | 10981 ft | 250 kts | 355° |
| 2026-04-22 11:39 | 9.81940 | 123.75362 | 11720 ft | 253 kts | 354° |
| 2026-04-22 11:39 | 9.83709 | 123.75273 | 12454 ft | 257 kts | 354° |
| 2026-04-22 11:39 | 9.85486 | 123.75179 | 13179 ft | 261 kts | 354° |
| 2026-04-22 11:39 | 9.87309 | 123.75082 | 13906 ft | 264 kts | 354° |
| 2026-04-22 11:40 | 9.89135 | 123.74927 | 14616 ft | 267 kts | 347° |
| 2026-04-22 11:40 | 9.90902 | 123.74377 | 15321 ft | 267 kts | 332° |
| 2026-04-22 11:40 | 9.92525 | 123.73502 | 16017 ft | 270 kts | 328° |
| 2026-04-22 11:40 | 9.94155 | 123.72541 | 16702 ft | 273 kts | 328° |
| 2026-04-22 11:41 | 9.95792 | 123.71567 | 17375 ft | 277 kts | 328° |
| 2026-04-22 11:41 | 9.97479 | 123.70568 | 18048 ft | 280 kts | 328° |
| 2026-04-22 11:41 | 9.99167 | 123.69574 | 18700 ft | 284 kts | 328° |
| 2026-04-22 11:41 | 10.00889 | 123.68565 | 19341 ft | 287 kts | 328° |
| 2026-04-22 11:42 | 10.02624 | 123.67550 | 19969 ft | 290 kts | 328° |
| 2026-04-22 11:42 | 10.04389 | 123.66518 | 20587 ft | 294 kts | 328° |
| 2026-04-22 11:42 | 10.06140 | 123.65495 | 21168 ft | 297 kts | 328° |
| 2026-04-22 11:42 | 10.07911 | 123.64462 | 21733 ft | 301 kts | 328° |
| 2026-04-22 11:43 | 10.09763 | 123.63380 | 22305 ft | 305 kts | 329° |
| 2026-04-22 11:43 | 10.11615 | 123.62303 | 22857 ft | 309 kts | 329° |
| 2026-04-22 11:43 | 10.13471 | 123.61228 | 23394 ft | 312 kts | 329° |
| 2026-04-22 11:43 | 10.15364 | 123.60128 | 23924 ft | 316 kts | 329° |
| 2026-04-22 11:44 | 10.17271 | 123.59018 | 24440 ft | 319 kts | 329° |
| 2026-04-22 11:44 | 10.19209 | 123.57886 | 24950 ft | 322 kts | 329° |
| 2026-04-22 11:44 | 10.21156 | 123.56748 | 25443 ft | 326 kts | 329° |
| 2026-04-22 11:44 | 10.23094 | 123.55615 | 25920 ft | 329 kts | 329° |
| 2026-04-22 11:45 | 10.25076 | 123.54456 | 26392 ft | 332 kts | 329° |
| 2026-04-22 11:45 | 10.27104 | 123.53270 | 26858 ft | 335 kts | 329° |
| 2026-04-22 11:45 | 10.29131 | 123.52085 | 27310 ft | 338 kts | 329° |
| 2026-04-22 11:45 | 10.31154 | 123.50906 | 27745 ft | 341 kts | 329° |
| 2026-04-22 11:46 | 10.33217 | 123.49706 | 28180 ft | 344 kts | 329° |
| 2026-04-22 11:46 | 10.35304 | 123.48489 | 28604 ft | 347 kts | 329° |
| 2026-04-22 11:46 | 10.37407 | 123.47263 | 29020 ft | 350 kts | 329° |
| 2026-04-22 11:46 | 10.39511 | 123.46036 | 29425 ft | 353 kts | 329° |
| 2026-04-22 11:47 | 10.41638 | 123.44794 | 29824 ft | 356 kts | 329° |
| 2026-04-22 11:47 | 10.43802 | 123.43530 | 30216 ft | 358 kts | 329° |
| 2026-04-22 11:47 | 10.45936 | 123.42284 | 30593 ft | 361 kts | 330° |
| 2026-04-22 11:47 | 10.48105 | 123.41016 | 30963 ft | 363 kts | 330° |
| 2026-04-22 11:48 | 10.50324 | 123.39719 | 31330 ft | 366 kts | 330° |
| 2026-04-22 11:48 | 10.52530 | 123.38429 | 31682 ft | 368 kts | 330° |
| 2026-04-22 11:48 | 10.54730 | 123.37142 | 32014 ft | 371 kts | 330° |
| 2026-04-22 11:48 | 10.56955 | 123.35841 | 32340 ft | 373 kts | 330° |
| 2026-04-22 11:49 | 10.59207 | 123.34521 | 32662 ft | 376 kts | 329° |
| 2026-04-22 11:49 | 10.61469 | 123.33186 | 32981 ft | 378 kts | 329° |
| 2026-04-22 11:49 | 10.63739 | 123.31849 | 33285 ft | 380 kts | 329° |
| 2026-04-22 11:49 | 10.66019 | 123.30512 | 33572 ft | 382 kts | 330° |
| 2026-04-22 11:50 | 10.68329 | 123.29160 | 33829 ft | 385 kts | 330° |
| 2026-04-22 11:50 | 10.70668 | 123.27794 | 33871 ft | 394 kts | 330° |
| 2026-04-22 11:50 | 10.75536 | 123.24946 | 33885 ft | 413 kts | 330° |
| 2026-04-22 11:51 | 10.80589 | 123.21981 | 33888 ft | 430 kts | 330° |
| 2026-04-22 11:51 | 10.85820 | 123.18913 | 33884 ft | 439 kts | 330° |
| 2026-04-22 11:52 | 10.91105 | 123.15814 | 33883 ft | 440 kts | 330° |
| 2026-04-22 11:52 | 10.96366 | 123.12729 | 33883 ft | 440 kts | 329° |
| 2026-04-22 11:53 | 11.01661 | 123.09618 | 33883 ft | 440 kts | 329° |
| 2026-04-22 11:53 | 11.06953 | 123.06509 | 33883 ft | 440 kts | 329° |
| 2026-04-22 11:54 | 11.12215 | 123.03419 | 33883 ft | 440 kts | 329° |
| 2026-04-22 11:54 | 11.17496 | 123.00333 | 33883 ft | 440 kts | 329° |
| 2026-04-22 11:55 | 11.22794 | 122.97223 | 33883 ft | 440 kts | 329° |
| 2026-04-22 11:55 | 11.28054 | 122.94128 | 33883 ft | 440 kts | 329° |
| 2026-04-22 11:56 | 11.33343 | 122.91015 | 33883 ft | 440 kts | 329° |
| 2026-04-22 11:56 | 11.38640 | 122.87898 | 33883 ft | 440 kts | 329° |
| 2026-04-22 11:57 | 11.43924 | 122.84786 | 33883 ft | 440 kts | 329° |
| 2026-04-22 11:57 | 11.49187 | 122.81684 | 33883 ft | 440 kts | 329° |
| 2026-04-22 11:58 | 11.54456 | 122.78577 | 33883 ft | 440 kts | 329° |
| 2026-04-22 11:58 | 11.59744 | 122.75425 | 33883 ft | 440 kts | 327° |
| 2026-04-22 11:59 | 11.64839 | 122.72046 | 33883 ft | 440 kts | 326° |
| 2026-04-22 11:59 | 11.69938 | 122.68610 | 33883 ft | 440 kts | 326° |
| 2026-04-22 12:00 | 11.74185 | 122.65748 | 33883 ft | 440 kts | 326° |
| 2026-04-22 12:00 | 11.80108 | 122.61756 | 33883 ft | 440 kts | 326° |
| 2026-04-22 12:01 | 11.85216 | 122.58312 | 33883 ft | 440 kts | 326° |
| 2026-04-22 12:01 | 11.90305 | 122.54880 | 33883 ft | 440 kts | 326° |
| 2026-04-22 12:02 | 11.95400 | 122.51443 | 33883 ft | 440 kts | 326° |
| 2026-04-22 12:02 | 12.00498 | 122.48001 | 33883 ft | 440 kts | 326° |
| 2026-04-22 12:03 | 12.05565 | 122.44580 | 33883 ft | 440 kts | 326° |
| 2026-04-22 12:03 | 12.10687 | 122.41120 | 33882 ft | 440 kts | 326° |
| 2026-04-22 12:04 | 12.15764 | 122.37707 | 33883 ft | 440 kts | 326° |
| 2026-04-22 12:04 | 12.20877 | 122.34257 | 33883 ft | 440 kts | 326° |
| 2026-04-22 12:05 | 12.25934 | 122.30810 | 33882 ft | 440 kts | 326° |
| 2026-04-22 12:05 | 12.31041 | 122.27341 | 33878 ft | 440 kts | 326° |
| 2026-04-22 12:06 | 12.36123 | 122.23898 | 33886 ft | 440 kts | 326° |
| 2026-04-22 12:06 | 12.41194 | 122.20408 | 33897 ft | 440 kts | 325° |
| 2026-04-22 12:07 | 12.46236 | 122.16899 | 33903 ft | 440 kts | 325° |
| 2026-04-22 12:07 | 12.51284 | 122.13387 | 33905 ft | 440 kts | 325° |
| 2026-04-22 12:08 | 12.56336 | 122.09875 | 33906 ft | 440 kts | 325° |
| 2026-04-22 12:08 | 12.61384 | 122.06365 | 33906 ft | 440 kts | 325° |
| 2026-04-22 12:09 | 12.66410 | 122.02868 | 33906 ft | 440 kts | 325° |
| 2026-04-22 12:09 | 12.71476 | 121.99343 | 33906 ft | 440 kts | 325° |
| 2026-04-22 12:10 | 12.76537 | 121.95818 | 33439 ft | 446 kts | 325° |
| 2026-04-22 12:10 | 12.79085 | 121.94043 | 32581 ft | 452 kts | 325° |
| 2026-04-22 12:10 | 12.81685 | 121.92233 | 31731 ft | 454 kts | 325° |
| 2026-04-22 12:11 | 12.84266 | 121.90434 | 30975 ft | 455 kts | 325° |
| 2026-04-22 12:11 | 12.86874 | 121.88616 | 30238 ft | 454 kts | 325° |
| 2026-04-22 12:11 | 12.89480 | 121.86800 | 29502 ft | 454 kts | 325° |
| 2026-04-22 12:11 | 12.92083 | 121.84985 | 28827 ft | 451 kts | 325° |
| 2026-04-22 12:12 | 12.94655 | 121.83190 | 28362 ft | 444 kts | 325° |
| 2026-04-22 12:12 | 12.97168 | 121.81437 | 27896 ft | 438 kts | 325° |
| 2026-04-22 12:12 | 12.99672 | 121.79690 | 27421 ft | 433 kts | 324° |
| 2026-04-22 12:12 | 13.02120 | 121.77982 | 26949 ft | 428 kts | 324° |
| 2026-04-22 12:13 | 13.04543 | 121.76290 | 26479 ft | 423 kts | 324° |
| 2026-04-22 12:13 | 13.06976 | 121.74591 | 26004 ft | 419 kts | 324° |
| 2026-04-22 12:13 | 13.09369 | 121.72920 | 25536 ft | 415 kts | 324° |
| 2026-04-22 12:13 | 13.11749 | 121.71259 | 25069 ft | 412 kts | 324° |
| 2026-04-22 12:14 | 13.14089 | 121.69634 | 24614 ft | 408 kts | 324° |
| 2026-04-22 12:14 | 13.16409 | 121.68021 | 24161 ft | 405 kts | 324° |
| 2026-04-22 12:14 | 13.18714 | 121.66414 | 23713 ft | 402 kts | 324° |
| 2026-04-22 12:14 | 13.21015 | 121.64807 | 23265 ft | 398 kts | 324° |
| 2026-04-22 12:15 | 13.23281 | 121.63223 | 22822 ft | 395 kts | 324° |
| 2026-04-22 12:15 | 13.25530 | 121.61650 | 22379 ft | 392 kts | 324° |
| 2026-04-22 12:15 | 13.27783 | 121.60073 | 21932 ft | 389 kts | 324° |
| 2026-04-22 12:15 | 13.30015 | 121.58510 | 21487 ft | 386 kts | 324° |
| 2026-04-22 12:16 | 13.32214 | 121.56969 | 21047 ft | 382 kts | 323° |
| 2026-04-22 12:16 | 13.34399 | 121.55439 | 20610 ft | 379 kts | 323° |
| 2026-04-22 12:16 | 13.36554 | 121.53929 | 20176 ft | 376 kts | 323° |
| 2026-04-22 12:16 | 13.38687 | 121.52433 | 19744 ft | 373 kts | 323° |
| 2026-04-22 12:17 | 13.40838 | 121.50925 | 19307 ft | 370 kts | 323° |
| 2026-04-22 12:17 | 13.42944 | 121.49448 | 18877 ft | 367 kts | 323° |
| 2026-04-22 12:17 | 13.45044 | 121.47974 | 18445 ft | 365 kts | 323° |
| 2026-04-22 12:17 | 13.47104 | 121.46528 | 18021 ft | 362 kts | 323° |
| 2026-04-22 12:18 | 13.49192 | 121.45061 | 17585 ft | 359 kts | 323° |
| 2026-04-22 12:18 | 13.51216 | 121.43640 | 17161 ft | 356 kts | 323° |
| 2026-04-22 12:18 | 13.53247 | 121.42213 | 16733 ft | 353 kts | 323° |
| 2026-04-22 12:18 | 13.55273 | 121.40791 | 16299 ft | 351 kts | 323° |
| 2026-04-22 12:19 | 13.57280 | 121.39381 | 15884 ft | 347 kts | 323° |
| 2026-04-22 12:19 | 13.59223 | 121.37963 | 15824 ft | 340 kts | 322° |
| 2026-04-22 12:19 | 13.61128 | 121.36544 | 15330 ft | 340 kts | 322° |
| 2026-04-22 12:19 | 13.63030 | 121.35120 | 14738 ft | 340 kts | 322° |
| 2026-04-22 12:20 | 13.64906 | 121.33710 | 14270 ft | 337 kts | 322° |
| 2026-04-22 12:20 | 13.66784 | 121.32295 | 13808 ft | 333 kts | 322° |
| 2026-04-22 12:20 | 13.68659 | 121.30885 | 13333 ft | 330 kts | 322° |
| 2026-04-22 12:20 | 13.70477 | 121.29523 | 12871 ft | 327 kts | 322° |
| 2026-04-22 12:21 | 13.72325 | 121.28141 | 12397 ft | 324 kts | 322° |
| 2026-04-22 12:21 | 13.74132 | 121.26791 | 11873 ft | 323 kts | 322° |
| 2026-04-22 12:21 | 13.75944 | 121.25440 | 11350 ft | 322 kts | 322° |
| 2026-04-22 12:21 | 13.77740 | 121.24103 | 11055 ft | 321 kts | 322° |
| 2026-04-22 12:22 | 13.79548 | 121.22753 | 11010 ft | 323 kts | 322° |
| 2026-04-22 12:22 | 13.81358 | 121.21401 | 11002 ft | 323 kts | 322° |
| 2026-04-22 12:22 | 13.83166 | 121.20052 | 10994 ft | 314 kts | 322° |
| 2026-04-22 12:22 | 13.84878 | 121.18777 | 10988 ft | 297 kts | 322° |
| 2026-04-22 12:23 | 13.86511 | 121.17559 | 10991 ft | 287 kts | 322° |
| 2026-04-22 12:23 | 13.88135 | 121.16346 | 10993 ft | 287 kts | 322° |
| 2026-04-22 12:23 | 13.89738 | 121.15147 | 10930 ft | 284 kts | 322° |
| 2026-04-22 12:23 | 13.91319 | 121.13966 | 10652 ft | 284 kts | 322° |
| 2026-04-22 12:24 | 13.92926 | 121.12765 | 10373 ft | 285 kts | 322° |
| 2026-04-22 12:24 | 13.94537 | 121.11562 | 10097 ft | 286 kts | 322° |
| 2026-04-22 12:24 | 13.96136 | 121.10367 | 9821 ft | 286 kts | 321° |
| 2026-04-22 12:24 | 13.97732 | 121.09174 | 9548 ft | 287 kts | 321° |
| 2026-04-22 12:25 | 13.99333 | 121.07976 | 9273 ft | 286 kts | 322° |
| 2026-04-22 12:25 | 14.00948 | 121.06769 | 8990 ft | 282 kts | 321° |
| 2026-04-22 12:25 | 14.02516 | 121.05597 | 8714 ft | 276 kts | 321° |
| 2026-04-22 12:25 | 14.03520 | 121.04846 | 8526 ft | 266 kts | 321° |
| 2026-04-22 12:26 | 14.04964 | 121.03768 | 8274 ft | 253 kts | 321° |
| 2026-04-22 12:26 | 14.06850 | 121.02356 | 7937 ft | 247 kts | 321° |
| 2026-04-22 12:26 | 14.08216 | 121.01334 | 7680 ft | 243 kts | 321° |
| 2026-04-22 12:26 | 14.09576 | 121.00315 | 7430 ft | 241 kts | 321° |
| 2026-04-22 12:27 | 14.10937 | 120.99299 | 7196 ft | 240 kts | 322° |
| 2026-04-22 12:27 | 14.12272 | 120.98309 | 6971 ft | 237 kts | 322° |
| 2026-04-22 12:27 | 14.13623 | 120.97304 | 6743 ft | 238 kts | 322° |
| 2026-04-22 12:27 | 14.14952 | 120.96313 | 6520 ft | 238 kts | 322° |
| 2026-04-22 12:28 | 14.16285 | 120.95316 | 6307 ft | 238 kts | 322° |
| 2026-04-22 12:28 | 14.17667 | 120.94354 | 6121 ft | 239 kts | 327° |
| 2026-04-22 12:28 | 14.19089 | 120.93495 | 5916 ft | 238 kts | 328° |
| 2026-04-22 12:28 | 14.20529 | 120.92645 | 5713 ft | 238 kts | 328° |
| 2026-04-22 12:29 | 14.21954 | 120.91806 | 5515 ft | 239 kts | 328° |
| 2026-04-22 12:29 | 14.23410 | 120.90949 | 5322 ft | 238 kts | 329° |
| 2026-04-22 12:29 | 14.24846 | 120.90102 | 5153 ft | 238 kts | 328° |
| 2026-04-22 12:29 | 14.26277 | 120.89253 | 5063 ft | 239 kts | 329° |
| 2026-04-22 12:30 | 14.29070 | 120.87619 | 4792 ft | 224 kts | 329° |
| 2026-04-22 12:30 | 14.30412 | 120.86844 | 4575 ft | 218 kts | 329° |
| 2026-04-22 12:30 | 14.31704 | 120.86100 | 4374 ft | 209 kts | 329° |
| 2026-04-22 12:31 | 14.32944 | 120.85384 | 4112 ft | 203 kts | 329° |
| 2026-04-22 12:31 | 14.34156 | 120.84678 | 3878 ft | 196 kts | 329° |
| 2026-04-22 12:31 | 14.35309 | 120.84010 | 3673 ft | 188 kts | 330° |
| 2026-04-22 12:31 | 14.36419 | 120.83369 | 3478 ft | 179 kts | 329° |
| 2026-04-22 12:32 | 14.37480 | 120.82757 | 3285 ft | 171 kts | 333° |
| 2026-04-22 12:32 | 14.39654 | 120.82725 | 3004 ft | 159 kts | 37° |
| 2026-04-22 12:32 | 14.40465 | 120.83512 | 3017 ft | 161 kts | 53° |
| 2026-04-22 12:33 | 14.41106 | 120.84450 | 2921 ft | 157 kts | 60° |
| 2026-04-22 12:33 | 14.41654 | 120.85377 | 2883 ft | 147 kts | 63° |
| 2026-04-22 12:33 | 14.42169 | 120.86291 | 2860 ft | 147 kts | 63° |
| 2026-04-22 12:33 | 14.42669 | 120.87189 | 2824 ft | 145 kts | 63° |
| 2026-04-22 12:34 | 14.43176 | 120.88103 | 2685 ft | 144 kts | 63° |
| 2026-04-22 12:34 | 14.43671 | 120.88996 | 2479 ft | 144 kts | 63° |
| 2026-04-22 12:34 | 14.44173 | 120.89903 | 2293 ft | 146 kts | 63° |
| 2026-04-22 12:34 | 14.44669 | 120.90795 | 2111 ft | 141 kts | 63° |
| 2026-04-22 12:35 | 14.45160 | 120.91679 | 1920 ft | 142 kts | 63° |
| 2026-04-22 12:35 | 14.45645 | 120.92552 | 1722 ft | 141 kts | 63° |
| 2026-04-22 12:35 | 14.46140 | 120.93446 | 1547 ft | 143 kts | 63° |
| 2026-04-22 12:35 | 14.46626 | 120.94320 | 1354 ft | 140 kts | 63° |
| 2026-04-22 12:36 | 14.47111 | 120.95194 | 1174 ft | 138 kts | 64° |
| 2026-04-22 12:36 | 14.47592 | 120.96060 | 990 ft | 141 kts | 63° |
| 2026-04-22 12:36 | 14.48067 | 120.96924 | 844 ft | 138 kts | 63° |
| 2026-04-22 12:36 | 14.48539 | 120.97777 | 622 ft | 137 kts | 63° |
| 2026-04-22 12:37 | 14.49017 | 120.98627 | 436 ft | 136 kts | 63° |
| 2026-04-22 12:37 | 14.49480 | 120.99475 | 282 ft | 135 kts | 63° |
| 2026-04-22 12:37 | 14.49953 | 121.00314 | 107 ft | 135 kts | 63° |
| 2026-04-22 12:37 | 14.50377 | 121.01083 | 84 ft | 101 kts | 60° |
| 2026-04-22 12:38 | 14.50645 | 121.01561 | 84 ft | 52 kts | 60° |
| 2026-04-22 12:38 | 14.50788 | 121.01737 | 84 ft | 22 kts | 37° |
| 2026-04-22 12:38 | 14.50865 | 121.01791 | 84 ft | 8 kts | 2° |
| 2026-04-22 12:38 | 14.50898 | 121.01778 | 84 ft | 3 kts | 314° |
| 2026-04-22 12:39 | 14.50907 | 121.01748 | 84 ft | 4 kts | 257° |
| 2026-04-22 12:39 | 14.50891 | 121.01668 | 84 ft | 7 kts | 313° |
| 2026-04-22 12:39 | 14.50921 | 121.01636 | 84 ft | 5 kts | 314° |
| 2026-04-22 12:40 | 14.50952 | 121.01604 | 84 ft | 6 kts | 314° |
| 2026-04-22 12:40 | 14.50988 | 121.01567 | 84 ft | 6 kts | 316° |
| 2026-04-22 12:40 | 14.51018 | 121.01537 | 84 ft | 6 kts | 316° |
| 2026-04-22 12:40 | 14.51051 | 121.01504 | 84 ft | 7 kts | 314° |
| 2026-04-22 12:41 | 14.51078 | 121.01475 | 84 ft | 4 kts | 313° |
| 2026-04-22 12:41 | 14.51081 | 121.01445 | 84 ft | 4 kts | 241° |
| 2026-04-22 12:41 | 14.51068 | 121.01426 | 84 ft | 2 kts | 231° |
| 2026-04-22 12:41 | 14.51056 | 121.01410 | 84 ft | 1 kts | 229° |
| 2026-04-22 12:42 | 14.51054 | 121.01408 | 84 ft | 0 kts | 230° |
| 2026-04-22 12:42 | 14.51053 | 121.01406 | 84 ft | 0 kts | 230° |